createdAt,value
2023-05-14T00:00:09.007Z,66.88
2023-05-14T00:01:09.022Z,66.83
2023-05-14T00:02:09.063Z,66.73
2023-05-14T00:03:09.199Z,66.70
2023-05-14T00:04:09.090Z,66.70
2023-05-14T00:05:09.029Z,66.71
2023-05-14T00:06:09.066Z,66.87
2023-05-14T00:07:09.031Z,66.96
2023-05-14T00:08:09.023Z,66.95
2023-05-14T00:09:09.002Z,66.91
2023-05-14T00:10:09.004Z,67.01
2023-05-14T00:11:09.121Z,67.11
2023-05-14T00:12:09.076Z,67.01
2023-05-14T00:13:09.092Z,67.07
2023-05-14T00:14:09.080Z,67.14
2023-05-14T00:15:09.082Z,67.16
2023-05-14T00:16:09.108Z,67.21
2023-05-14T00:17:09.058Z,67.20
2023-05-14T00:18:09.083Z,67.20
2023-05-14T00:19:09.106Z,67.24
2023-05-14T00:20:09.021Z,67.34
2023-05-14T00:21:09.046Z,67.29
2023-05-14T00:22:08.986Z,67.31
2023-05-14T00:23:08.976Z,67.36
2023-05-14T00:24:08.945Z,67.30
2023-05-14T00:25:08.929Z,67.28
2023-05-14T00:26:08.894Z,67.15
2023-05-14T00:27:08.890Z,67.07
2023-05-14T00:28:08.868Z,67.06
2023-05-14T00:29:08.859Z,67.26
2023-05-14T00:30:08.854Z,67.50
2023-05-14T00:31:08.897Z,67.42
2023-05-14T00:32:08.837Z,67.21
2023-05-14T00:33:08.842Z,67.21
2023-05-14T00:34:08.810Z,67.30
2023-05-14T00:35:08.790Z,67.35
2023-05-14T00:36:08.771Z,67.50
2023-05-14T00:37:08.779Z,67.76
2023-05-14T00:38:08.755Z,67.70
2023-05-14T00:39:08.724Z,67.69
2023-05-14T00:40:08.761Z,67.75
2023-05-14T00:41:08.695Z,67.93
2023-05-14T00:42:08.673Z,68.09
2023-05-14T00:43:08.686Z,68.34
2023-05-14T00:44:08.696Z,68.90
2023-05-14T00:45:08.669Z,68.93
2023-05-14T00:46:08.697Z,68.82
2023-05-14T00:47:09.025Z,68.63
2023-05-14T00:48:08.769Z,69.10
2023-05-14T00:49:08.745Z,68.97
2023-05-14T00:50:09.215Z,68.73
2023-05-14T00:51:08.876Z,68.67
2023-05-14T00:52:08.796Z,68.50
2023-05-14T00:53:08.871Z,68.48
2023-05-14T00:54:08.872Z,68.53
2023-05-14T00:55:08.912Z,68.48
2023-05-14T00:56:09.702Z,68.31
2023-05-14T00:57:08.980Z,68.29
2023-05-14T00:58:09.010Z,68.33
2023-05-14T00:59:09.051Z,68.29
2023-05-14T01:00:09.081Z,68.31
2023-05-14T01:01:09.170Z,68.22
2023-05-14T01:02:09.154Z,68.15
2023-05-14T01:03:09.395Z,68.12
2023-05-14T01:04:09.271Z,68.12
2023-05-14T01:05:09.251Z,68.24
2023-05-14T01:06:09.225Z,68.23
2023-05-14T01:07:09.232Z,68.14
2023-05-14T01:08:09.217Z,68.16
2023-05-14T01:09:09.221Z,68.22
2023-05-14T01:10:09.207Z,68.32
2023-05-14T01:11:09.216Z,68.29
2023-05-14T01:12:09.182Z,68.35
2023-05-14T01:13:09.188Z,68.31
2023-05-14T01:14:09.166Z,68.26
2023-05-14T01:15:09.190Z,68.21
2023-05-14T01:16:09.216Z,68.22
2023-05-14T01:17:09.127Z,68.19
2023-05-14T01:18:09.155Z,68.05
2023-05-14T01:19:09.123Z,67.99
2023-05-14T01:20:09.136Z,67.90
2023-05-14T01:21:09.101Z,67.92
2023-05-14T01:22:09.107Z,67.93
2023-05-14T01:23:09.136Z,67.91
2023-05-14T01:24:09.147Z,68.11
2023-05-14T01:25:09.187Z,68.20
2023-05-14T01:26:10.215Z,68.26
2023-05-14T01:27:09.242Z,68.33
2023-05-14T01:28:09.221Z,68.25
2023-05-14T01:29:09.196Z,68.15
2023-05-14T01:30:09.198Z,67.98
2023-05-14T01:31:09.180Z,67.89
2023-05-14T01:32:09.325Z,68.00
2023-05-14T01:33:09.203Z,68.02
2023-05-14T01:34:09.186Z,68.02
2023-05-14T01:35:09.190Z,68.11
2023-05-14T01:36:09.200Z,68.05
2023-05-14T01:37:09.188Z,67.99
2023-05-14T01:38:09.733Z,67.85
2023-05-14T01:39:09.159Z,67.77
2023-05-14T01:40:09.174Z,67.65
2023-05-14T01:41:09.139Z,67.51
2023-05-14T01:42:09.161Z,67.61
2023-05-14T01:43:09.147Z,67.77
2023-05-14T01:44:09.159Z,67.77
2023-05-14T01:45:09.113Z,67.76
2023-05-14T01:46:09.194Z,67.85
2023-05-14T01:47:09.100Z,68.00
2023-05-14T01:48:09.150Z,67.91
2023-05-14T01:49:09.099Z,67.82
2023-05-14T01:50:09.173Z,67.69
2023-05-14T01:51:09.086Z,67.63
2023-05-14T01:52:09.086Z,67.65
2023-05-14T01:53:09.157Z,67.59
2023-05-14T01:54:09.094Z,67.63
2023-05-14T01:55:09.109Z,67.66
2023-05-14T01:56:09.109Z,67.82
2023-05-14T01:57:09.084Z,67.88
2023-05-14T01:58:09.135Z,67.92
2023-05-14T01:59:09.067Z,67.87
2023-05-14T02:00:09.069Z,67.86
2023-05-14T02:01:09.090Z,68.03
2023-05-14T02:02:09.082Z,68.02
2023-05-14T02:03:09.134Z,67.94
2023-05-14T02:04:09.132Z,67.86
2023-05-14T02:05:09.114Z,67.99
2023-05-14T02:06:09.169Z,67.94
2023-05-14T02:07:09.211Z,67.91
2023-05-14T02:08:09.252Z,67.94
2023-05-14T02:09:09.279Z,67.84
2023-05-14T02:10:09.327Z,67.93
2023-05-14T02:11:10.215Z,68.07
2023-05-14T02:12:09.423Z,68.00
2023-05-14T02:13:09.448Z,68.23
2023-05-14T02:14:09.526Z,68.28
2023-05-14T02:15:09.569Z,68.35
2023-05-14T02:16:09.653Z,68.41
2023-05-14T02:17:10.197Z,68.28
2023-05-14T02:18:09.808Z,68.29
2023-05-14T02:19:09.741Z,68.25
2023-05-14T02:20:09.768Z,68.30
2023-05-14T02:21:09.786Z,68.24
2023-05-14T02:22:09.862Z,68.21
2023-05-14T02:23:09.894Z,68.15
2023-05-14T02:24:09.948Z,68.15
2023-05-14T02:25:10.015Z,68.10
2023-05-14T02:26:10.079Z,68.09
2023-05-14T02:27:10.084Z,68.08
2023-05-14T02:28:10.128Z,68.13
2023-05-14T02:29:10.139Z,68.21
2023-05-14T02:30:10.200Z,68.31
2023-05-14T02:31:10.262Z,68.37
2023-05-14T02:32:10.233Z,68.45
2023-05-14T02:33:10.332Z,68.47
2023-05-14T02:34:10.202Z,68.41
2023-05-14T02:35:10.222Z,68.29
2023-05-14T02:36:10.216Z,68.23
2023-05-14T02:37:10.209Z,68.15
2023-05-14T02:38:10.209Z,68.10
2023-05-14T02:39:10.242Z,68.10
2023-05-14T02:40:10.237Z,68.08
2023-05-14T02:41:10.212Z,68.04
2023-05-14T02:42:10.222Z,68.05
2023-05-14T02:43:10.257Z,68.07
2023-05-14T02:44:10.282Z,68.08
2023-05-14T02:45:10.301Z,67.95
2023-05-14T02:46:10.352Z,67.95
2023-05-14T02:47:10.526Z,67.96
2023-05-14T02:48:10.552Z,67.87
2023-05-14T02:49:10.535Z,67.87
2023-05-14T02:50:10.562Z,67.84
2023-05-14T02:51:10.594Z,67.88
2023-05-14T02:52:10.627Z,67.99
2023-05-14T02:53:10.650Z,68.07
2023-05-14T02:54:10.696Z,68.08
2023-05-14T02:55:10.750Z,68.02
2023-05-14T02:56:10.841Z,67.98
2023-05-14T02:57:10.874Z,67.98
2023-05-14T02:58:10.940Z,68.10
2023-05-14T02:59:11.040Z,68.08
2023-05-14T03:00:11.092Z,68.14
2023-05-14T03:01:11.181Z,68.31
2023-05-14T03:02:11.195Z,68.25
2023-05-14T03:03:11.186Z,68.18
2023-05-14T03:04:11.220Z,68.11
2023-05-14T03:05:11.263Z,68.12
2023-05-14T03:06:11.329Z,68.14
2023-05-14T03:07:11.306Z,68.24
2023-05-14T03:08:11.331Z,68.21
2023-05-14T03:09:11.375Z,68.10
2023-05-14T03:10:11.373Z,68.08
2023-05-14T03:11:11.383Z,68.10
2023-05-14T03:12:11.377Z,68.10
2023-05-14T03:13:11.410Z,68.21
2023-05-14T03:14:11.422Z,68.25
2023-05-14T03:15:11.452Z,68.27
2023-05-14T03:16:11.597Z,68.33
2023-05-14T03:17:11.622Z,68.44
2023-05-14T03:18:11.459Z,68.52
2023-05-14T03:19:11.495Z,68.46
2023-05-14T03:20:11.451Z,68.46
2023-05-14T03:21:11.468Z,68.40
2023-05-14T03:22:11.461Z,68.43
2023-05-14T03:23:11.481Z,68.51
2023-05-14T03:24:11.496Z,68.48
2023-05-14T03:25:11.477Z,68.61
2023-05-14T03:26:11.500Z,68.58
2023-05-14T03:27:11.484Z,68.42
2023-05-14T03:28:11.495Z,68.26
2023-05-14T03:29:11.505Z,68.20
2023-05-14T03:30:11.548Z,68.08
2023-05-14T03:31:11.633Z,68.02
2023-05-14T03:32:11.612Z,67.96
2023-05-14T03:33:11.650Z,67.99
2023-05-14T03:34:11.689Z,67.91
2023-05-14T03:35:11.694Z,67.82
2023-05-14T03:36:11.728Z,67.70
2023-05-14T03:37:11.781Z,67.84
2023-05-14T03:38:11.833Z,67.82
2023-05-14T03:39:11.899Z,67.94
2023-05-14T03:40:11.989Z,67.83
2023-05-14T03:41:12.055Z,67.72
2023-05-14T03:42:12.075Z,67.59
2023-05-14T03:43:12.114Z,67.61
2023-05-14T03:44:12.173Z,67.64
2023-05-14T03:45:12.225Z,67.68
2023-05-14T03:46:12.294Z,67.73
2023-05-14T03:47:12.363Z,67.71
2023-05-14T03:48:12.548Z,67.60
2023-05-14T03:49:12.505Z,67.57
2023-05-14T03:50:12.479Z,67.49
2023-05-14T03:51:12.502Z,67.39
2023-05-14T03:52:12.564Z,67.36
2023-05-14T03:53:12.574Z,67.31
2023-05-14T03:54:12.574Z,67.30
2023-05-14T03:55:12.578Z,67.26
2023-05-14T03:56:12.659Z,67.26
2023-05-14T03:57:12.632Z,67.31
2023-05-14T03:58:12.650Z,67.34
2023-05-14T03:59:12.723Z,67.41
2023-05-14T04:00:12.759Z,67.41
2023-05-14T04:01:12.765Z,67.35
2023-05-14T04:02:12.856Z,67.41
2023-05-14T04:03:12.998Z,67.46
2023-05-14T04:04:12.924Z,67.41
2023-05-14T04:05:12.901Z,67.31
2023-05-14T04:06:12.904Z,67.27
2023-05-14T04:07:12.914Z,67.37
2023-05-14T04:08:12.908Z,67.32
2023-05-14T04:09:12.933Z,67.19
2023-05-14T04:10:12.915Z,66.83
2023-05-14T04:11:12.918Z,66.66
2023-05-14T04:12:12.907Z,66.65
2023-05-14T04:13:12.913Z,66.69
2023-05-14T04:14:12.925Z,66.63
2023-05-14T04:15:12.920Z,66.59
2023-05-14T04:16:12.949Z,66.75
2023-05-14T04:17:12.925Z,66.76
2023-05-14T04:18:13.006Z,66.71
2023-05-14T04:19:13.014Z,66.66
2023-05-14T04:20:12.988Z,66.63
2023-05-14T04:21:13.060Z,66.58
2023-05-14T04:22:13.118Z,66.68
2023-05-14T04:23:13.158Z,66.72
2023-05-14T04:24:13.236Z,66.73
2023-05-14T04:25:13.331Z,66.87
2023-05-14T04:26:13.370Z,66.80
2023-05-14T04:27:13.414Z,66.61
2023-05-14T04:28:13.445Z,66.36
2023-05-14T04:29:13.494Z,66.07
2023-05-14T04:30:13.510Z,66.07
2023-05-14T04:31:13.536Z,65.96
2023-05-14T04:32:13.469Z,65.87
2023-05-14T04:33:13.446Z,65.46
2023-05-14T04:34:13.448Z,65.47
2023-05-14T04:35:13.421Z,65.49
2023-05-14T04:36:13.417Z,65.67
2023-05-14T04:37:13.404Z,65.68
2023-05-14T04:38:13.404Z,65.51
2023-05-14T04:39:13.401Z,65.32
2023-05-14T04:40:13.365Z,65.42
2023-05-14T04:41:13.363Z,65.54
2023-05-14T04:42:13.358Z,65.61
2023-05-14T04:43:13.332Z,65.50
2023-05-14T04:44:13.342Z,65.31
2023-05-14T04:45:13.325Z,65.04
2023-05-14T04:46:13.439Z,65.00
2023-05-14T04:47:13.438Z,64.92
2023-05-14T04:48:13.482Z,64.71
2023-05-14T04:49:13.509Z,64.65
2023-05-14T04:50:13.527Z,64.79
2023-05-14T04:51:13.521Z,64.70
2023-05-14T04:52:13.524Z,64.87
2023-05-14T04:53:13.521Z,64.83
2023-05-14T04:54:13.548Z,64.84
2023-05-14T04:55:13.553Z,64.79
2023-05-14T04:56:13.532Z,64.72
2023-05-14T04:57:13.553Z,64.48
2023-05-14T04:58:13.589Z,64.27
2023-05-14T04:59:13.630Z,63.95
2023-05-14T05:00:13.631Z,63.64
2023-05-14T05:01:13.751Z,63.56
2023-05-14T05:02:13.640Z,63.71
2023-05-14T05:03:13.780Z,63.86
2023-05-14T05:04:13.670Z,64.09
2023-05-14T05:05:13.609Z,64.05
2023-05-14T05:06:13.602Z,63.97
2023-05-14T05:07:13.579Z,63.63
2023-05-14T05:08:13.551Z,63.28
2023-05-14T05:09:13.517Z,62.92
2023-05-14T05:10:13.481Z,62.44
2023-05-14T05:11:13.463Z,62.02
2023-05-14T05:12:13.422Z,61.84
2023-05-14T05:13:13.388Z,61.40
2023-05-14T05:14:13.355Z,61.10
2023-05-14T05:15:13.328Z,61.02
2023-05-14T05:16:13.327Z,61.19
2023-05-14T05:17:13.283Z,61.43
2023-05-14T05:18:13.296Z,61.15
2023-05-14T05:19:13.385Z,61.14
2023-05-14T05:20:13.273Z,61.23
2023-05-14T05:21:13.258Z,61.08
2023-05-14T05:22:13.212Z,61.08
2023-05-14T05:23:13.301Z,60.79
2023-05-14T05:24:13.244Z,61.02
2023-05-14T05:25:13.302Z,60.38
2023-05-14T05:26:13.230Z,59.61
2023-05-14T05:27:13.217Z,59.31
2023-05-14T05:28:13.171Z,58.98
2023-05-14T05:29:13.135Z,58.96
2023-05-14T05:30:13.080Z,58.74
2023-05-14T05:31:13.060Z,58.50
2023-05-14T05:32:13.003Z,58.41
2023-05-14T05:33:12.978Z,58.51
2023-05-14T05:34:12.942Z,58.50
2023-05-14T05:35:12.882Z,58.65
2023-05-14T05:36:12.854Z,58.55
2023-05-14T05:37:12.852Z,58.52
2023-05-14T05:38:12.779Z,58.79
2023-05-14T05:39:12.777Z,59.13
2023-05-14T05:40:12.816Z,59.50
2023-05-14T05:41:12.845Z,59.67
2023-05-14T05:42:12.847Z,59.59
2023-05-14T05:43:12.890Z,59.15
2023-05-14T05:44:12.919Z,59.18
2023-05-14T05:45:12.928Z,59.25
2023-05-14T05:46:13.010Z,59.03
2023-05-14T05:47:12.973Z,59.00
2023-05-14T05:48:12.982Z,58.91
2023-05-14T05:49:12.997Z,58.89
2023-05-14T05:50:12.987Z,59.00
2023-05-14T05:51:13.037Z,59.46
2023-05-14T05:52:13.059Z,59.48
2023-05-14T05:53:13.085Z,59.66
2023-05-14T05:54:13.104Z,59.29
2023-05-14T05:55:13.065Z,59.15
2023-05-14T05:56:13.037Z,58.92
2023-05-14T05:57:13.004Z,58.70
2023-05-14T05:58:12.971Z,58.40
2023-05-14T05:59:12.947Z,58.23
2023-05-14T06:00:12.908Z,58.17
2023-05-14T06:01:12.884Z,58.02
2023-05-14T06:02:12.828Z,58.01
2023-05-14T06:03:12.795Z,58.03
2023-05-14T06:04:12.814Z,58.35
2023-05-14T06:05:12.758Z,57.98
2023-05-14T06:06:12.626Z,57.87
2023-05-14T06:07:12.852Z,57.46
2023-05-14T06:08:12.707Z,57.30
2023-05-14T06:09:12.733Z,57.28
2023-05-14T06:10:12.729Z,57.28
2023-05-14T06:11:12.727Z,57.19
2023-05-14T06:12:12.707Z,57.09
2023-05-14T06:13:12.734Z,57.07
2023-05-14T06:14:12.689Z,57.06
2023-05-14T06:15:12.678Z,56.83
2023-05-14T06:16:12.706Z,56.58
2023-05-14T06:17:12.708Z,56.46
2023-05-14T06:18:12.728Z,56.60
2023-05-14T06:19:12.792Z,56.72
2023-05-14T06:20:12.684Z,56.55
2023-05-14T06:21:12.662Z,56.53
2023-05-14T06:22:12.665Z,55.96
2023-05-14T06:23:12.668Z,55.41
2023-05-14T06:24:12.620Z,54.85
2023-05-14T06:25:12.615Z,54.47
2023-05-14T06:26:12.575Z,54.17
2023-05-14T06:27:12.599Z,54.04
2023-05-14T06:28:12.613Z,54.06
2023-05-14T06:29:12.602Z,53.97
2023-05-14T06:30:12.629Z,53.84
2023-05-14T06:31:12.594Z,53.81
2023-05-14T06:32:12.599Z,53.78
2023-05-14T06:33:12.549Z,53.70
2023-05-14T06:34:12.558Z,53.65
2023-05-14T06:35:12.545Z,53.62
2023-05-14T06:36:12.567Z,53.52
2023-05-14T06:37:12.552Z,53.54
2023-05-14T06:38:12.549Z,53.56
2023-05-14T06:39:12.581Z,53.32
2023-05-14T06:40:12.509Z,52.95
2023-05-14T06:41:12.503Z,52.92
2023-05-14T06:42:12.508Z,52.96
2023-05-14T06:43:12.488Z,52.94
2023-05-14T06:44:12.472Z,52.44
2023-05-14T06:45:12.454Z,52.48
2023-05-14T06:46:12.409Z,51.96
2023-05-14T06:47:12.365Z,51.70
2023-05-14T06:48:12.364Z,51.76
2023-05-14T06:49:12.422Z,51.84
2023-05-14T06:50:12.256Z,51.98
2023-05-14T06:51:12.284Z,51.96
2023-05-14T06:52:12.252Z,51.49
2023-05-14T06:53:12.173Z,50.88
2023-05-14T06:54:12.171Z,50.74
2023-05-14T06:55:12.141Z,50.21
2023-05-14T06:56:12.103Z,50.08
2023-05-14T06:57:12.112Z,50.17
2023-05-14T06:58:12.099Z,50.24
2023-05-14T06:59:12.062Z,50.37
2023-05-14T07:00:12.059Z,50.89
2023-05-14T07:01:12.072Z,50.83
2023-05-14T07:02:12.007Z,50.09
2023-05-14T07:03:12.035Z,49.95
2023-05-14T07:04:12.025Z,49.94
2023-05-14T07:05:12.049Z,50.67
2023-05-14T07:06:13.622Z,50.36
2023-05-14T07:07:11.973Z,50.73
2023-05-14T07:08:11.925Z,51.06
2023-05-14T07:09:11.897Z,50.40
2023-05-14T07:10:11.854Z,50.02
2023-05-14T07:11:11.843Z,49.66
2023-05-14T07:12:11.805Z,49.51
2023-05-14T07:13:11.761Z,49.74
2023-05-14T07:14:11.692Z,48.80
2023-05-14T07:15:11.697Z,48.31
2023-05-14T07:16:11.672Z,48.22
2023-05-14T07:17:11.721Z,48.63
2023-05-14T07:18:11.622Z,48.53
2023-05-14T07:19:11.640Z,48.82
2023-05-14T07:20:11.621Z,48.42
2023-05-14T07:21:11.546Z,47.88
2023-05-14T07:22:11.498Z,48.02
2023-05-14T07:23:11.438Z,47.07
2023-05-14T07:24:11.365Z,47.55
2023-05-14T07:25:11.302Z,47.38
2023-05-14T07:26:11.288Z,47.52
2023-05-14T07:27:11.177Z,47.40
2023-05-14T07:28:11.092Z,46.53
2023-05-14T07:29:11.041Z,46.58
2023-05-14T07:30:11.016Z,45.92
2023-05-14T07:31:11.021Z,45.18
2023-05-14T07:32:11.738Z,44.76
2023-05-14T07:33:10.821Z,43.94
2023-05-14T07:34:10.680Z,43.86
2023-05-14T07:35:10.633Z,43.89
2023-05-14T07:36:10.569Z,43.64
2023-05-14T07:37:10.634Z,43.22
2023-05-14T07:38:10.449Z,42.99
2023-05-14T07:39:10.400Z,42.65
2023-05-14T07:40:10.325Z,43.14
2023-05-14T07:41:10.261Z,43.77
2023-05-14T07:42:10.250Z,43.95
2023-05-14T07:43:10.134Z,44.17
2023-05-14T07:44:10.053Z,43.49
2023-05-14T07:45:09.964Z,44.11
2023-05-14T07:46:09.875Z,43.65
2023-05-14T07:47:09.833Z,43.81
2023-05-14T07:48:09.744Z,43.71
2023-05-14T07:49:09.621Z,43.70
2023-05-14T07:50:09.542Z,43.13
2023-05-14T07:51:09.489Z,43.15
2023-05-14T07:52:09.381Z,42.88
2023-05-14T07:53:09.304Z,43.48
2023-05-14T07:54:09.203Z,42.65
2023-05-14T07:55:09.132Z,42.78
2023-05-14T07:56:09.037Z,43.26
2023-05-14T07:57:09.005Z,43.73
2023-05-14T07:58:08.972Z,43.49
2023-05-14T07:59:08.943Z,43.90
2023-05-14T08:00:08.904Z,43.29
2023-05-14T08:01:08.887Z,43.03
2023-05-14T08:02:08.841Z,43.00
2023-05-14T08:03:08.845Z,42.86
2023-05-14T08:04:08.741Z,43.19
2023-05-14T08:05:08.644Z,44.17
2023-05-14T08:06:08.557Z,44.44
2023-05-14T08:07:08.519Z,44.28
2023-05-14T08:08:08.498Z,44.65
2023-05-14T08:09:08.447Z,44.42
2023-05-14T08:10:08.439Z,43.56
2023-05-14T08:11:08.500Z,43.44
2023-05-14T08:12:08.367Z,43.10
2023-05-14T08:13:08.316Z,42.68
2023-05-14T08:14:08.250Z,43.13
2023-05-14T08:15:08.172Z,42.99
2023-05-14T08:16:08.075Z,43.90
2023-05-14T08:17:08.202Z,43.97
2023-05-14T08:18:08.041Z,43.37
2023-05-14T08:19:08.086Z,43.44
2023-05-14T08:20:07.883Z,42.04
2023-05-14T08:21:07.819Z,41.54
2023-05-14T08:22:07.786Z,40.95
2023-05-14T08:23:07.705Z,42.22
2023-05-14T08:24:07.690Z,43.02
2023-05-14T08:25:07.687Z,42.84
2023-05-14T08:26:07.656Z,42.05
2023-05-14T08:27:07.633Z,42.51
2023-05-14T08:28:07.486Z,43.02
2023-05-14T08:29:09.366Z,42.81
2023-05-14T08:30:08.279Z,42.42
2023-05-14T08:31:07.274Z,41.81
2023-05-14T08:32:19.347Z,42.90
2023-05-14T08:33:08.059Z,43.16
2023-05-14T08:34:06.954Z,43.40
2023-05-14T08:35:06.876Z,42.85
2023-05-14T08:36:06.782Z,42.56
2023-05-14T08:37:06.685Z,43.09
2023-05-14T08:38:06.595Z,43.62
2023-05-14T08:39:06.524Z,43.71
2023-05-14T08:40:06.426Z,43.35
2023-05-14T08:41:06.388Z,43.60
2023-05-14T08:42:06.333Z,43.89
2023-05-14T08:43:06.237Z,44.12
2023-05-14T08:44:06.179Z,44.17
2023-05-14T08:45:06.133Z,44.57
2023-05-14T08:46:05.961Z,44.88
2023-05-14T08:47:05.889Z,45.36
2023-05-14T08:48:05.901Z,45.07
2023-05-14T08:49:05.882Z,45.11
2023-05-14T08:50:05.753Z,45.51
2023-05-14T08:51:05.722Z,45.62
2023-05-14T08:52:05.696Z,45.54
2023-05-14T08:53:05.651Z,45.62
2023-05-14T08:54:05.627Z,46.64
2023-05-14T08:55:05.614Z,46.99
2023-05-14T08:56:05.555Z,46.96
2023-05-14T08:57:05.535Z,46.86
2023-05-14T08:58:05.454Z,46.93
2023-05-14T08:59:05.385Z,45.97
2023-05-14T09:00:05.325Z,45.69
2023-05-14T09:01:05.307Z,45.30
2023-05-14T09:02:05.300Z,45.44
2023-05-14T09:03:05.202Z,44.75
2023-05-14T09:04:05.127Z,44.35
2023-05-14T09:05:05.095Z,44.20
2023-05-14T09:06:05.058Z,44.53
2023-05-14T09:07:05.026Z,44.63
2023-05-14T09:08:04.998Z,45.36
2023-05-14T09:09:04.947Z,45.83
2023-05-14T09:10:04.888Z,45.04
2023-05-14T09:11:04.825Z,44.26
2023-05-14T09:12:04.760Z,44.41
2023-05-14T09:13:04.726Z,43.42
2023-05-14T09:14:04.665Z,43.63
2023-05-14T09:15:04.629Z,43.16
2023-05-14T09:16:04.577Z,44.22
2023-05-14T09:17:04.831Z,43.43
2023-05-14T09:18:04.516Z,43.16
2023-05-14T09:19:04.479Z,42.62
2023-05-14T09:20:04.434Z,42.95
2023-05-14T09:21:04.266Z,42.48
2023-05-14T09:22:04.413Z,42.77
2023-05-14T09:23:04.226Z,42.33
2023-05-14T09:24:04.161Z,43.46
2023-05-14T09:25:04.139Z,42.88
2023-05-14T09:26:04.132Z,43.19
2023-05-14T09:27:04.346Z,43.43
2023-05-14T09:28:04.062Z,43.99
2023-05-14T09:29:04.081Z,44.97
2023-05-14T09:30:03.971Z,44.96
2023-05-14T09:31:03.925Z,44.83
2023-05-14T09:32:03.864Z,45.27
2023-05-14T09:33:03.741Z,44.82
2023-05-14T09:34:03.637Z,44.76
2023-05-14T09:35:03.564Z,45.70
2023-05-14T09:36:03.479Z,45.27
2023-05-14T09:37:03.434Z,45.31
2023-05-14T09:38:03.377Z,45.12
2023-05-14T09:39:03.277Z,45.83
2023-05-14T09:40:03.205Z,46.13
2023-05-14T09:41:03.115Z,46.65
2023-05-14T09:42:03.036Z,46.45
2023-05-14T09:43:02.957Z,46.71
2023-05-14T09:44:04.667Z,46.83
2023-05-14T09:45:02.846Z,47.01
2023-05-14T09:46:02.771Z,46.94
2023-05-14T09:47:02.718Z,47.45
2023-05-14T09:48:02.891Z,48.09
2023-05-14T09:49:02.574Z,48.61
2023-05-14T09:50:02.532Z,48.14
2023-05-14T09:51:04.073Z,49.13
2023-05-14T09:52:02.378Z,50.58
2023-05-14T09:53:02.374Z,51.66
2023-05-14T09:54:02.274Z,51.38
2023-05-14T09:55:02.216Z,51.73
2023-05-14T09:56:02.202Z,51.64
2023-05-14T09:57:02.185Z,51.52
2023-05-14T09:58:02.149Z,52.16
2023-05-14T09:59:02.149Z,52.25
2023-05-14T10:00:02.103Z,51.49
2023-05-14T10:01:02.120Z,51.80
2023-05-14T10:02:02.063Z,50.47
2023-05-14T10:03:02.101Z,50.20
2023-05-14T10:04:02.047Z,50.15
2023-05-14T10:05:01.958Z,48.82
2023-05-14T10:06:01.948Z,49.94
2023-05-14T10:07:01.924Z,50.92
2023-05-14T10:08:01.942Z,51.66
2023-05-14T10:09:01.954Z,51.72
2023-05-14T10:10:01.990Z,51.72
2023-05-14T10:11:01.986Z,52.06
2023-05-14T10:12:01.991Z,52.35
2023-05-14T10:13:01.956Z,52.30
2023-05-14T10:14:01.935Z,52.37
2023-05-14T10:15:01.935Z,52.79
2023-05-14T10:16:01.910Z,52.57
2023-05-14T10:17:01.973Z,53.50
2023-05-14T10:18:01.965Z,54.28
2023-05-14T10:19:01.898Z,54.25
2023-05-14T10:20:01.906Z,53.56
2023-05-14T10:21:01.912Z,53.83
2023-05-14T10:22:01.878Z,53.84
2023-05-14T10:23:01.845Z,53.50
2023-05-14T10:24:01.844Z,53.47
2023-05-14T10:25:01.792Z,54.21
2023-05-14T10:26:01.776Z,53.77
2023-05-14T10:27:01.720Z,53.54
2023-05-14T10:28:01.748Z,54.63
2023-05-14T10:29:01.715Z,55.01
2023-05-14T10:30:01.687Z,53.97
2023-05-14T10:31:01.721Z,53.53
2023-05-14T10:32:01.701Z,54.12
2023-05-14T10:33:01.707Z,55.64
2023-05-14T10:34:01.688Z,54.21
2023-05-14T10:35:01.665Z,54.89
2023-05-14T10:36:01.681Z,55.65
2023-05-14T10:37:01.713Z,56.50
2023-05-14T10:38:01.674Z,55.94
2023-05-14T10:39:01.665Z,55.72
2023-05-14T10:40:01.634Z,56.15
2023-05-14T10:41:01.642Z,56.67
2023-05-14T10:42:01.601Z,56.27
2023-05-14T10:43:01.607Z,57.03
2023-05-14T10:44:01.583Z,57.11
2023-05-14T10:45:01.538Z,56.48
2023-05-14T10:46:01.515Z,55.76
2023-05-14T10:47:01.556Z,55.07
2023-05-14T10:48:01.512Z,53.96
2023-05-14T10:49:01.466Z,53.25
2023-05-14T10:50:01.429Z,52.68
2023-05-14T10:51:01.433Z,52.17
2023-05-14T10:52:01.369Z,52.12
2023-05-14T10:53:01.382Z,53.10
2023-05-14T10:54:01.302Z,53.36
2023-05-14T10:55:03.174Z,52.36
2023-05-14T10:56:01.285Z,52.38
2023-05-14T10:57:01.182Z,52.73
2023-05-14T10:58:01.188Z,51.36
2023-05-14T10:59:01.121Z,51.10
2023-05-14T11:00:01.205Z,50.20
2023-05-14T11:01:01.039Z,49.01
2023-05-14T11:02:01.067Z,48.46
2023-05-14T11:03:01.070Z,48.66
2023-05-14T11:04:00.938Z,48.31
2023-05-14T11:05:00.881Z,48.42
2023-05-14T11:06:00.865Z,48.70
2023-05-14T11:07:00.785Z,48.11
2023-05-14T11:08:00.765Z,46.88
2023-05-14T11:09:00.678Z,46.67
2023-05-14T11:10:00.734Z,46.52
2023-05-14T11:11:00.705Z,46.44
2023-05-14T11:12:00.586Z,46.45
2023-05-14T11:13:00.505Z,46.87
2023-05-14T11:14:00.463Z,47.94
2023-05-14T11:15:00.372Z,47.32
2023-05-14T11:16:08.789Z,47.04
2023-05-14T11:17:01.313Z,47.33
2023-05-14T11:18:00.318Z,47.28
2023-05-14T11:19:00.131Z,46.56
2023-05-14T11:20:00.089Z,46.03
2023-05-14T11:20:59.979Z,45.37
2023-05-14T11:21:59.830Z,46.07
2023-05-14T11:22:59.755Z,45.14
2023-05-14T11:23:59.665Z,45.19
2023-05-14T11:24:59.549Z,44.79
2023-05-14T11:25:59.467Z,44.33
2023-05-14T11:26:59.467Z,43.69
2023-05-14T11:27:59.272Z,44.32
2023-05-14T11:28:59.245Z,43.95
2023-05-14T11:29:59.225Z,43.68
2023-05-14T11:30:59.172Z,44.55
2023-05-14T11:31:59.126Z,45.48
2023-05-14T11:33:00.697Z,43.64
2023-05-14T11:33:58.948Z,43.57
2023-05-14T11:34:58.854Z,43.44
2023-05-14T11:35:58.752Z,44.63
2023-05-14T11:36:58.728Z,45.32
2023-05-14T11:37:58.656Z,46.13
2023-05-14T11:38:58.568Z,45.63
2023-05-14T11:39:58.478Z,45.92
2023-05-14T11:40:58.426Z,44.64
2023-05-14T11:41:58.354Z,45.62
2023-05-14T11:42:58.294Z,44.94
2023-05-14T11:43:58.195Z,45.41
2023-05-14T11:44:58.075Z,44.65
2023-05-14T11:45:58.010Z,44.60
2023-05-14T11:46:57.893Z,44.13
2023-05-14T11:47:58.015Z,43.62
2023-05-14T11:48:57.833Z,43.48
2023-05-14T11:49:57.746Z,42.79
2023-05-14T11:50:57.611Z,42.91
2023-05-14T11:51:57.602Z,43.10
2023-05-14T11:52:57.834Z,42.32
2023-05-14T11:53:57.520Z,42.25
2023-05-14T11:54:57.429Z,42.56
2023-05-14T11:55:57.341Z,42.55
2023-05-14T11:56:57.236Z,43.62
2023-05-14T11:57:57.153Z,43.35
2023-05-14T11:58:57.050Z,42.77
2023-05-14T11:59:56.957Z,43.86
2023-05-14T12:00:56.880Z,43.86
2023-05-14T12:01:56.780Z,43.68
2023-05-14T12:02:56.831Z,43.17
2023-05-14T12:03:56.677Z,43.93
2023-05-14T12:04:56.529Z,43.91
2023-05-14T12:05:56.421Z,45.41
2023-05-14T12:06:56.341Z,45.15
2023-05-14T12:07:56.283Z,46.10
2023-05-14T12:08:56.196Z,46.04
2023-05-14T12:09:56.130Z,45.97
2023-05-14T12:10:56.093Z,46.54
2023-05-14T12:11:56.001Z,46.37
2023-05-14T12:12:55.902Z,45.99
2023-05-14T12:13:55.841Z,47.07
2023-05-14T12:14:55.735Z,46.69
2023-05-14T12:15:55.709Z,47.11
2023-05-14T12:16:55.644Z,47.05
2023-05-14T12:17:55.615Z,47.31
2023-05-14T12:18:55.520Z,47.57
2023-05-14T12:19:55.442Z,48.38
2023-05-14T12:20:55.375Z,48.92
2023-05-14T12:21:55.276Z,48.54
2023-05-14T12:22:55.234Z,49.52
2023-05-14T12:23:55.145Z,48.82
2023-05-14T12:24:55.080Z,49.03
2023-05-14T12:25:55.042Z,49.24
2023-05-14T12:26:55.007Z,49.38
2023-05-14T12:27:54.952Z,49.40
2023-05-14T12:28:54.931Z,48.98
2023-05-14T12:29:54.841Z,49.40
2023-05-14T12:30:54.814Z,49.53
2023-05-14T12:31:55.380Z,49.75
2023-05-14T12:32:54.794Z,49.71
2023-05-14T12:33:54.683Z,49.19
2023-05-14T12:34:54.633Z,49.27
2023-05-14T12:35:54.621Z,48.92
2023-05-14T12:36:54.568Z,49.11
2023-05-14T12:37:55.390Z,48.73
2023-05-14T12:38:55.341Z,48.85
2023-05-14T12:39:54.525Z,48.01
2023-05-14T12:40:54.499Z,48.08
2023-05-14T12:41:54.307Z,47.24
2023-05-14T12:42:56.074Z,46.91
2023-05-14T12:43:54.863Z,46.69
2023-05-14T12:44:54.833Z,46.69
2023-05-14T12:45:54.229Z,46.98
2023-05-14T12:46:54.149Z,47.48
2023-05-14T12:47:53.992Z,47.22
2023-05-14T12:48:53.923Z,47.13
2023-05-14T12:49:53.857Z,47.74
2023-05-14T12:50:53.794Z,47.10
2023-05-14T12:52:07.916Z,47.17